Terminal Aerodrome Forecast
Issued by NWS Lake Charles, LA

Home | Current Version | Previous Version | Text Only | Print | Product List | Glossary On
Versions: 1 2 3 4 5 6 7 8 9 10 11 12 13 14
000
FTUS44 KLCH 252325
TAFARA
TAF
KARA 252325Z 2600/2624 08006KT P6SM VCSH SCT050
     FM260200 VRB03KT P6SM SKC
      TEMPO 2610/2614 3SM BR
     FM261500 05004KT P6SM FEW025 SCT035
     FM261800 08005KT P6SM VCSH BKN040=

USA.gov is the U.S. government's official web portal to all federal, state and local government web resources and services.